sensor_id;sensor_type;location;lat;lon;timestamp;temperature;humidity
5466;DHT22;2755;50.728;7.108;2023-04-08T00:00:21;8.60;99.90
5466;DHT22;2755;50.728;7.108;2023-04-08T00:02:46;9.10;99.90
5466;DHT22;2755;50.728;7.108;2023-04-08T00:05:12;8.50;99.90
5466;DHT22;2755;50.728;7.108;2023-04-08T00:10:04;8.40;99.90
5466;DHT22;2755;50.728;7.108;2023-04-08T00:12:31;8.50;99.90
5466;DHT22;2755;50.728;7.108;2023-04-08T00:19:50;8.40;99.90
5466;DHT22;2755;50.728;7.108;2023-04-08T00:24:42;8.60;99.90
5466;DHT22;2755;50.728;7.108;2023-04-08T00:27:07;8.70;99.90
5466;DHT22;2755;50.728;7.108;2023-04-08T00:29:33;8.60;99.90
5466;DHT22;2755;50.728;7.108;2023-04-08T00:31:59;8.50;99.90
5466;DHT22;2755;50.728;7.108;2023-04-08T00:34:24;8.50;99.90
5466;DHT22;2755;50.728;7.108;2023-04-08T00:36:50;8.60;99.90
5466;DHT22;2755;50.728;7.108;2023-04-08T00:39:16;8.40;99.90
5466;DHT22;2755;50.728;7.108;2023-04-08T00:41:42;8.40;99.90
5466;DHT22;2755;50.728;7.108;2023-04-08T00:46:36;8.60;99.90
5466;DHT22;2755;50.728;7.108;2023-04-08T00:49:03;8.60;99.90
5466;DHT22;2755;50.728;7.108;2023-04-08T00:51:29;9.00;99.90
5466;DHT22;2755;50.728;7.108;2023-04-08T00:53:55;8.50;99.90
5466;DHT22;2755;50.728;7.108;2023-04-08T00:56:22;9.10;99.90
5466;DHT22;2755;50.728;7.108;2023-04-08T01:01:25;8.50;99.90
5466;DHT22;2755;50.728;7.108;2023-04-08T01:04:23;8.50;99.90
5466;DHT22;2755;50.728;7.108;2023-04-08T01:06:56;8.40;99.90
5466;DHT22;2755;50.728;7.108;2023-04-08T01:09:26;8.40;99.90
5466;DHT22;2755;50.728;7.108;2023-04-08T01:11:53;8.50;99.90
5466;DHT22;2755;50.728;7.108;2023-04-08T01:14:20;8.40;99.90
5466;DHT22;2755;50.728;7.108;2023-04-08T01:16:48;8.90;99.90
5466;DHT22;2755;50.728;7.108;2023-04-08T01:19:28;8.50;99.90
5466;DHT22;2755;50.728;7.108;2023-04-08T01:21:57;8.90;99.90
5466;DHT22;2755;50.728;7.108;2023-04-08T01:24:30;8.40;99.90
5466;DHT22;2755;50.728;7.108;2023-04-08T01:26:55;8.80;99.90
5466;DHT22;2755;50.728;7.108;2023-04-08T01:29:23;8.40;99.90
5466;DHT22;2755;50.728;7.108;2023-04-08T01:31:51;8.40;99.90
5466;DHT22;2755;50.728;7.108;2023-04-08T01:34:18;8.20;99.90
5466;DHT22;2755;50.728;7.108;2023-04-08T01:36:46;7.80;99.90
5466;DHT22;2755;50.728;7.108;2023-04-08T01:39:14;8.20;99.90
5466;DHT22;2755;50.728;7.108;2023-04-08T01:41:43;8.20;99.90
5466;DHT22;2755;50.728;7.108;2023-04-08T01:44:10;8.00;99.90
5466;DHT22;2755;50.728;7.108;2023-04-08T01:46:38;8.60;99.90
5466;DHT22;2755;50.728;7.108;2023-04-08T01:49:06;7.80;99.90
5466;DHT22;2755;50.728;7.108;2023-04-08T01:51:32;8.30;99.90
5466;DHT22;2755;50.728;7.108;2023-04-08T01:53:58;8.30;99.90
5466;DHT22;2755;50.728;7.108;2023-04-08T01:56:27;8.10;99.90
5466;DHT22;2755;50.728;7.108;2023-04-08T01:58:57;8.10;99.90
5466;DHT22;2755;50.728;7.108;2023-04-08T02:01:25;7.90;99.90
5466;DHT22;2755;50.728;7.108;2023-04-08T02:03:52;8.30;99.90
5466;DHT22;2755;50.728;7.108;2023-04-08T02:06:21;8.30;99.90
5466;DHT22;2755;50.728;7.108;2023-04-08T02:11:13;7.60;99.90
5466;DHT22;2755;50.728;7.108;2023-04-08T02:13:39;7.90;99.90
5466;DHT22;2755;50.728;7.108;2023-04-08T02:19:17;8.90;99.90
5466;DHT22;2755;50.728;7.108;2023-04-08T02:21:47;7.30;99.90
5466;DHT22;2755;50.728;7.108;2023-04-08T02:24:16;8.00;99.90
5466;DHT22;2755;50.728;7.108;2023-04-08T02:26:43;7.80;99.90
5466;DHT22;2755;50.728;7.108;2023-04-08T02:29:14;7.80;99.90
5466;DHT22;2755;50.728;7.108;2023-04-08T02:31:41;7.80;99.90
5466;DHT22;2755;50.728;7.108;2023-04-08T02:34:09;7.80;99.90
5466;DHT22;2755;50.728;7.108;2023-04-08T02:36:35;7.70;99.90
5466;DHT22;2755;50.728;7.108;2023-04-08T02:39:02;7.90;99.90
5466;DHT22;2755;50.728;7.108;2023-04-08T02:41:29;7.80;99.90
5466;DHT22;2755;50.728;7.108;2023-04-08T02:43:55;7.70;99.90
5466;DHT22;2755;50.728;7.108;2023-04-08T02:46:20;8.00;99.90
5466;DHT22;2755;50.728;7.108;2023-04-08T02:51:13;7.30;99.90
5466;DHT22;2755;50.728;7.108;2023-04-08T02:53:38;7.20;99.90
5466;DHT22;2755;50.728;7.108;2023-04-08T02:56:04;7.70;99.90
5466;DHT22;2755;50.728;7.108;2023-04-08T03:00:56;7.80;99.90
5466;DHT22;2755;50.728;7.108;2023-04-08T03:03:21;7.90;99.90
5466;DHT22;2755;50.728;7.108;2023-04-08T03:05:54;7.70;99.90
5466;DHT22;2755;50.728;7.108;2023-04-08T03:08:20;7.50;99.90
5466;DHT22;2755;50.728;7.108;2023-04-08T03:10:46;8.40;99.90
5466;DHT22;2755;50.728;7.108;2023-04-08T03:15:38;7.80;99.90
5466;DHT22;2755;50.728;7.108;2023-04-08T03:18:03;8.20;99.90
5466;DHT22;2755;50.728;7.108;2023-04-08T03:20:30;7.60;99.90
5466;DHT22;2755;50.728;7.108;2023-04-08T03:22:55;7.70;99.90
5466;DHT22;2755;50.728;7.108;2023-04-08T03:25:21;7.70;99.90
5466;DHT22;2755;50.728;7.108;2023-04-08T03:27:46;7.70;99.90
5466;DHT22;2755;50.728;7.108;2023-04-08T03:30:12;7.50;99.90
5466;DHT22;2755;50.728;7.108;2023-04-08T03:32:37;7.70;99.90
5466;DHT22;2755;50.728;7.108;2023-04-08T03:35:04;7.50;99.90
5466;DHT22;2755;50.728;7.108;2023-04-08T03:37:30;7.70;99.90
5466;DHT22;2755;50.728;7.108;2023-04-08T03:39:56;7.60;99.90
5466;DHT22;2755;50.728;7.108;2023-04-08T03:42:22;7.70;99.90
5466;DHT22;2755;50.728;7.108;2023-04-08T03:44:47;7.60;99.90
5466;DHT22;2755;50.728;7.108;2023-04-08T03:52:05;7.80;99.90
5466;DHT22;2755;50.728;7.108;2023-04-08T03:59:23;7.60;99.90
5466;DHT22;2755;50.728;7.108;2023-04-08T04:01:49;8.00;99.90
5466;DHT22;2755;50.728;7.108;2023-04-08T04:04:15;7.60;99.90
5466;DHT22;2755;50.728;7.108;2023-04-08T04:09:07;7.20;99.90
5466;DHT22;2755;50.728;7.108;2023-04-08T04:11:36;8.10;99.90
5466;DHT22;2755;50.728;7.108;2023-04-08T04:21:19;7.40;99.90
5466;DHT22;2755;50.728;7.108;2023-04-08T04:28:37;8.00;99.90
5466;DHT22;2755;50.728;7.108;2023-04-08T04:31:03;7.90;99.90
5466;DHT22;2755;50.728;7.108;2023-04-08T04:33:30;7.80;99.90
5466;DHT22;2755;50.728;7.108;2023-04-08T04:40:47;7.70;99.90
5466;DHT22;2755;50.728;7.108;2023-04-08T04:43:13;8.20;99.90
5466;DHT22;2755;50.728;7.108;2023-04-08T04:45:38;7.60;99.90
5466;DHT22;2755;50.728;7.108;2023-04-08T04:48:04;7.50;99.90
5466;DHT22;2755;50.728;7.108;2023-04-08T04:52:55;7.70;99.90
5466;DHT22;2755;50.728;7.108;2023-04-08T04:55:21;8.20;99.90
5466;DHT22;2755;50.728;7.108;2023-04-08T04:57:47;7.70;99.90
5466;DHT22;2755;50.728;7.108;2023-04-08T05:00:14;7.80;99.90
5466;DHT22;2755;50.728;7.108;2023-04-08T05:05:07;7.10;99.90
5466;DHT22;2755;50.728;7.108;2023-04-08T05:07:36;7.40;99.90
5466;DHT22;2755;50.728;7.108;2023-04-08T05:10:02;7.20;99.90
5466;DHT22;2755;50.728;7.108;2023-04-08T05:12:28;6.90;99.90
5466;DHT22;2755;50.728;7.108;2023-04-08T05:14:54;7.70;99.90
5466;DHT22;2755;50.728;7.108;2023-04-08T05:17:19;7.50;99.90
5466;DHT22;2755;50.728;7.108;2023-04-08T05:19:45;7.60;99.90
5466;DHT22;2755;50.728;7.108;2023-04-08T05:24:37;8.10;99.90
5466;DHT22;2755;50.728;7.108;2023-04-08T05:27:02;7.80;99.90
5466;DHT22;2755;50.728;7.108;2023-04-08T05:29:28;7.70;99.90
5466;DHT22;2755;50.728;7.108;2023-04-08T05:31:53;7.80;99.90
5466;DHT22;2755;50.728;7.108;2023-04-08T05:36:48;7.60;99.90
5466;DHT22;2755;50.728;7.108;2023-04-08T05:39:19;7.30;99.90
5466;DHT22;2755;50.728;7.108;2023-04-08T05:41:45;6.90;99.90
5466;DHT22;2755;50.728;7.108;2023-04-08T05:46:38;7.40;99.90
5466;DHT22;2755;50.728;7.108;2023-04-08T05:49:03;8.10;99.90
5466;DHT22;2755;50.728;7.108;2023-04-08T05:51:29;7.40;99.90
5466;DHT22;2755;50.728;7.108;2023-04-08T05:53:55;8.30;99.90
5466;DHT22;2755;50.728;7.108;2023-04-08T05:56:20;8.60;99.90
5466;DHT22;2755;50.728;7.108;2023-04-08T05:58:46;7.20;99.90
5466;DHT22;2755;50.728;7.108;2023-04-08T06:01:12;7.30;99.90
5466;DHT22;2755;50.728;7.108;2023-04-08T06:03:37;8.60;99.90
5466;DHT22;2755;50.728;7.108;2023-04-08T06:08:29;8.20;99.90
5466;DHT22;2755;50.728;7.108;2023-04-08T06:10:55;7.90;99.90
5466;DHT22;2755;50.728;7.108;2023-04-08T06:13:20;8.40;99.90
5466;DHT22;2755;50.728;7.108;2023-04-08T06:15:46;8.10;99.90
5466;DHT22;2755;50.728;7.108;2023-04-08T06:18:14;8.70;99.90
5466;DHT22;2755;50.728;7.108;2023-04-08T06:20:40;7.60;99.90
5466;DHT22;2755;50.728;7.108;2023-04-08T06:23:05;8.00;99.90
5466;DHT22;2755;50.728;7.108;2023-04-08T06:25:31;8.20;99.90
5466;DHT22;2755;50.728;7.108;2023-04-08T06:27:57;8.00;99.90
5466;DHT22;2755;50.728;7.108;2023-04-08T06:30:22;8.10;99.90
5466;DHT22;2755;50.728;7.108;2023-04-08T06:32:48;8.40;99.90
5466;DHT22;2755;50.728;7.108;2023-04-08T06:35:13;8.30;99.90
5466;DHT22;2755;50.728;7.108;2023-04-08T06:37:40;8.30;99.90
5466;DHT22;2755;50.728;7.108;2023-04-08T06:40:06;8.20;99.90
5466;DHT22;2755;50.728;7.108;2023-04-08T06:42:31;7.70;99.90
5466;DHT22;2755;50.728;7.108;2023-04-08T06:44:57;8.10;99.90
5466;DHT22;2755;50.728;7.108;2023-04-08T06:47:23;8.50;99.90
5466;DHT22;2755;50.728;7.108;2023-04-08T06:49:48;8.50;99.90
5466;DHT22;2755;50.728;7.108;2023-04-08T06:54:41;8.40;99.90
5466;DHT22;2755;50.728;7.108;2023-04-08T06:57:07;8.20;99.90
5466;DHT22;2755;50.728;7.108;2023-04-08T06:59:33;8.00;99.90
5466;DHT22;2755;50.728;7.108;2023-04-08T07:01:58;8.20;99.90
5466;DHT22;2755;50.728;7.108;2023-04-08T07:06:51;8.60;99.90
5466;DHT22;2755;50.728;7.108;2023-04-08T07:21:26;8.40;99.90
5466;DHT22;2755;50.728;7.108;2023-04-08T07:23:52;8.50;99.90
5466;DHT22;2755;50.728;7.108;2023-04-08T07:26:17;8.40;99.90
5466;DHT22;2755;50.728;7.108;2023-04-08T07:31:16;8.70;99.90
5466;DHT22;2755;50.728;7.108;2023-04-08T07:33:43;8.10;99.90
5466;DHT22;2755;50.728;7.108;2023-04-08T07:36:10;9.20;99.90
5466;DHT22;2755;50.728;7.108;2023-04-08T07:38:36;8.80;99.90
5466;DHT22;2755;50.728;7.108;2023-04-08T07:43:30;9.10;99.90
5466;DHT22;2755;50.728;7.108;2023-04-08T07:46:00;9.40;99.90
5466;DHT22;2755;50.728;7.108;2023-04-08T07:48:28;9.00;99.90
5466;DHT22;2755;50.728;7.108;2023-04-08T07:50:54;10.10;99.90
5466;DHT22;2755;50.728;7.108;2023-04-08T07:55:46;9.70;99.90
5466;DHT22;2755;50.728;7.108;2023-04-08T08:00:38;9.90;99.90
5466;DHT22;2755;50.728;7.108;2023-04-08T08:03:05;10.00;99.90
5466;DHT22;2755;50.728;7.108;2023-04-08T08:05:30;10.10;99.90
5466;DHT22;2755;50.728;7.108;2023-04-08T08:07:56;10.30;99.90
5466;DHT22;2755;50.728;7.108;2023-04-08T08:12:47;10.30;99.90
5466;DHT22;2755;50.728;7.108;2023-04-08T08:15:13;10.10;99.90
5466;DHT22;2755;50.728;7.108;2023-04-08T08:17:39;9.50;99.90
5466;DHT22;2755;50.728;7.108;2023-04-08T08:20:05;9.90;99.90
5466;DHT22;2755;50.728;7.108;2023-04-08T08:24:57;10.10;99.90
5466;DHT22;2755;50.728;7.108;2023-04-08T08:27:24;10.30;99.90
5466;DHT22;2755;50.728;7.108;2023-04-08T08:29:50;10.60;99.90
5466;DHT22;2755;50.728;7.108;2023-04-08T08:34:42;10.70;99.90
5466;DHT22;2755;50.728;7.108;2023-04-08T08:37:08;11.00;99.90
5466;DHT22;2755;50.728;7.108;2023-04-08T08:41:59;11.60;99.90
5466;DHT22;2755;50.728;7.108;2023-04-08T08:44:25;10.80;99.90
5466;DHT22;2755;50.728;7.108;2023-04-08T08:51:45;11.10;99.90
5466;DHT22;2755;50.728;7.108;2023-04-08T08:56:37;11.20;99.90
5466;DHT22;2755;50.728;7.108;2023-04-08T08:59:03;11.30;99.90
5466;DHT22;2755;50.728;7.108;2023-04-08T09:01:33;12.00;97.10
5466;DHT22;2755;50.728;7.108;2023-04-08T09:07:10;11.50;92.60
5466;DHT22;2755;50.728;7.108;2023-04-08T09:09:51;11.30;92.20
5466;DHT22;2755;50.728;7.108;2023-04-08T09:12:16;11.00;94.40
5466;DHT22;2755;50.728;7.108;2023-04-08T09:14:42;11.40;90.30
5466;DHT22;2755;50.728;7.108;2023-04-08T09:17:08;10.70;93.20
5466;DHT22;2755;50.728;7.108;2023-04-08T09:22:07;12.90;93.10
5466;DHT22;2755;50.728;7.108;2023-04-08T09:24:34;11.70;88.10
5466;DHT22;2755;50.728;7.108;2023-04-08T09:27:00;11.90;92.10
5466;DHT22;2755;50.728;7.108;2023-04-08T09:32:00;12.00;89.00
5466;DHT22;2755;50.728;7.108;2023-04-08T09:34:27;12.30;79.70
5466;DHT22;2755;50.728;7.108;2023-04-08T09:36:53;12.30;83.30
5466;DHT22;2755;50.728;7.108;2023-04-08T09:41:50;12.00;74.90
5466;DHT22;2755;50.728;7.108;2023-04-08T09:44:18;12.30;77.80
5466;DHT22;2755;50.728;7.108;2023-04-08T09:49:54;12.30;81.10
5466;DHT22;2755;50.728;7.108;2023-04-08T09:52:44;12.60;74.70
5466;DHT22;2755;50.728;7.108;2023-04-08T09:55:16;12.90;77.90
5466;DHT22;2755;50.728;7.108;2023-04-08T10:00:18;13.60;65.70
5466;DHT22;2755;50.728;7.108;2023-04-08T10:03:05;13.40;67.10
5466;DHT22;2755;50.728;7.108;2023-04-08T10:05:36;13.30;69.70
5466;DHT22;2755;50.728;7.108;2023-04-08T10:08:03;13.30;67.60
5466;DHT22;2755;50.728;7.108;2023-04-08T10:12:55;13.10;58.90
5466;DHT22;2755;50.728;7.108;2023-04-08T10:15:32;13.00;60.70
5466;DHT22;2755;50.728;7.108;2023-04-08T10:22:59;12.80;60.60
5466;DHT22;2755;50.728;7.108;2023-04-08T10:32:58;12.40;60.20
5466;DHT22;2755;50.728;7.108;2023-04-08T10:35:39;12.40;64.00
5466;DHT22;2755;50.728;7.108;2023-04-08T10:38:07;12.50;65.90
5466;DHT22;2755;50.728;7.108;2023-04-08T10:40:38;12.50;65.50
5466;DHT22;2755;50.728;7.108;2023-04-08T10:45:32;12.10;65.00
5466;DHT22;2755;50.728;7.108;2023-04-08T10:53:06;11.80;63.30
5466;DHT22;2755;50.728;7.108;2023-04-08T10:58:09;11.90;56.80
5466;DHT22;2755;50.728;7.108;2023-04-08T11:00:36;12.30;58.80
5466;DHT22;2755;50.728;7.108;2023-04-08T11:03:03;11.90;59.20
5466;DHT22;2755;50.728;7.108;2023-04-08T11:05:30;11.70;57.20
5466;DHT22;2755;50.728;7.108;2023-04-08T11:07:58;11.90;58.90
5466;DHT22;2755;50.728;7.108;2023-04-08T11:10:24;11.20;61.60
5466;DHT22;2755;50.728;7.108;2023-04-08T11:12:50;11.70;61.70
5466;DHT22;2755;50.728;7.108;2023-04-08T11:15:16;11.90;66.20
5466;DHT22;2755;50.728;7.108;2023-04-08T11:17:42;11.90;64.30
5466;DHT22;2755;50.728;7.108;2023-04-08T11:20:09;11.90;61.70
5466;DHT22;2755;50.728;7.108;2023-04-08T11:25:01;12.10;56.20
5466;DHT22;2755;50.728;7.108;2023-04-08T11:27:27;12.40;64.40
5466;DHT22;2755;50.728;7.108;2023-04-08T11:29:54;12.80;52.50
5466;DHT22;2755;50.728;7.108;2023-04-08T11:32:21;13.30;50.70
5466;DHT22;2755;50.728;7.108;2023-04-08T11:34:48;13.30;51.90
5466;DHT22;2755;50.728;7.108;2023-04-08T11:37:14;12.90;52.30
5466;DHT22;2755;50.728;7.108;2023-04-08T11:39:43;13.20;45.30
5466;DHT22;2755;50.728;7.108;2023-04-08T11:42:31;13.10;46.70
5466;DHT22;2755;50.728;7.108;2023-04-08T11:44:57;12.80;48.50
5466;DHT22;2755;50.728;7.108;2023-04-08T11:47:35;13.00;48.60
5466;DHT22;2755;50.728;7.108;2023-04-08T11:50:02;13.20;48.40
5466;DHT22;2755;50.728;7.108;2023-04-08T11:52:40;13.50;45.90
5466;DHT22;2755;50.728;7.108;2023-04-08T11:59:58;12.00;48.60
5466;DHT22;2755;50.728;7.108;2023-04-08T12:02:24;11.30;53.00
5466;DHT22;2755;50.728;7.108;2023-04-08T12:04:50;12.30;50.30
5466;DHT22;2755;50.728;7.108;2023-04-08T12:07:16;12.30;49.30
5466;DHT22;2755;50.728;7.108;2023-04-08T12:09:42;11.80;50.90
5466;DHT22;2755;50.728;7.108;2023-04-08T12:12:07;11.60;52.80
5466;DHT22;2755;50.728;7.108;2023-04-08T12:14:33;11.50;52.70
5466;DHT22;2755;50.728;7.108;2023-04-08T12:16:58;12.00;54.80
5466;DHT22;2755;50.728;7.108;2023-04-08T12:24:17;11.00;53.30
5466;DHT22;2755;50.728;7.108;2023-04-08T12:26:42;11.80;51.70
5466;DHT22;2755;50.728;7.108;2023-04-08T12:29:08;11.60;48.80
5466;DHT22;2755;50.728;7.108;2023-04-08T12:31:36;12.10;48.00
5466;DHT22;2755;50.728;7.108;2023-04-08T12:46:12;12.00;46.20
5466;DHT22;2755;50.728;7.108;2023-04-08T12:51:03;12.20;48.20
5466;DHT22;2755;50.728;7.108;2023-04-08T12:55:55;12.30;49.20
5466;DHT22;2755;50.728;7.108;2023-04-08T13:00:49;12.40;45.70
5466;DHT22;2755;50.728;7.108;2023-04-08T13:03:15;12.90;43.60
5466;DHT22;2755;50.728;7.108;2023-04-08T13:05:42;12.80;44.50
5466;DHT22;2755;50.728;7.108;2023-04-08T13:08:08;12.80;42.80
5466;DHT22;2755;50.728;7.108;2023-04-08T13:10:35;12.90;35.50
5466;DHT22;2755;50.728;7.108;2023-04-08T13:13:00;12.70;36.90
5466;DHT22;2755;50.728;7.108;2023-04-08T13:20:18;13.00;41.00
5466;DHT22;2755;50.728;7.108;2023-04-08T13:25:13;12.20;34.50
5466;DHT22;2755;50.728;7.108;2023-04-08T13:27:39;12.90;34.20
5466;DHT22;2755;50.728;7.108;2023-04-08T13:30:05;13.30;34.60
5466;DHT22;2755;50.728;7.108;2023-04-08T13:32:31;12.90;35.40
5466;DHT22;2755;50.728;7.108;2023-04-08T13:34:57;12.80;35.00
5466;DHT22;2755;50.728;7.108;2023-04-08T13:37:23;13.80;34.40
5466;DHT22;2755;50.728;7.108;2023-04-08T13:39:48;13.20;32.70
5466;DHT22;2755;50.728;7.108;2023-04-08T13:42:14;13.20;33.50
5466;DHT22;2755;50.728;7.108;2023-04-08T13:44:40;13.30;34.30
5466;DHT22;2755;50.728;7.108;2023-04-08T13:47:05;13.90;31.50
5466;DHT22;2755;50.728;7.108;2023-04-08T13:49:31;13.80;29.10
5466;DHT22;2755;50.728;7.108;2023-04-08T13:51:57;14.20;27.90
5466;DHT22;2755;50.728;7.108;2023-04-08T13:54:22;14.20;25.50
5466;DHT22;2755;50.728;7.108;2023-04-08T13:56:48;13.60;25.00
5466;DHT22;2755;50.728;7.108;2023-04-08T13:59:14;13.90;26.30
5466;DHT22;2755;50.728;7.108;2023-04-08T14:06:31;14.10;29.90
5466;DHT22;2755;50.728;7.108;2023-04-08T14:08:58;14.00;28.00
5466;DHT22;2755;50.728;7.108;2023-04-08T14:11:23;13.70;30.50
5466;DHT22;2755;50.728;7.108;2023-04-08T14:16:18;13.70;32.90
5466;DHT22;2755;50.728;7.108;2023-04-08T14:21:10;13.40;33.80
5466;DHT22;2755;50.728;7.108;2023-04-08T14:26:03;13.90;31.00
5466;DHT22;2755;50.728;7.108;2023-04-08T14:28:28;14.20;31.50
5466;DHT22;2755;50.728;7.108;2023-04-08T14:30:54;13.80;30.50
5466;DHT22;2755;50.728;7.108;2023-04-08T14:33:20;13.70;28.10
5466;DHT22;2755;50.728;7.108;2023-04-08T14:35:45;13.70;29.30
5466;DHT22;2755;50.728;7.108;2023-04-08T14:38:12;13.70;28.90
5466;DHT22;2755;50.728;7.108;2023-04-08T14:47:55;13.30;30.10
5466;DHT22;2755;50.728;7.108;2023-04-08T14:50:21;13.60;32.70
5466;DHT22;2755;50.728;7.108;2023-04-08T14:52:47;13.10;32.20
5466;DHT22;2755;50.728;7.108;2023-04-08T14:55:13;13.90;31.60
5466;DHT22;2755;50.728;7.108;2023-04-08T15:00:05;13.50;28.40
5466;DHT22;2755;50.728;7.108;2023-04-08T15:02:31;13.90;28.80
5466;DHT22;2755;50.728;7.108;2023-04-08T15:04:57;13.60;30.00
5466;DHT22;2755;50.728;7.108;2023-04-08T15:07:23;13.60;27.30
5466;DHT22;2755;50.728;7.108;2023-04-08T15:09:48;13.60;28.00
5466;DHT22;2755;50.728;7.108;2023-04-08T15:12:14;13.20;29.20
5466;DHT22;2755;50.728;7.108;2023-04-08T15:14:40;13.30;30.90
5466;DHT22;2755;50.728;7.108;2023-04-08T15:19:31;13.20;33.00
5466;DHT22;2755;50.728;7.108;2023-04-08T15:21:57;13.40;32.60
5466;DHT22;2755;50.728;7.108;2023-04-08T15:24:22;14.00;29.40
5466;DHT22;2755;50.728;7.108;2023-04-08T15:29:14;13.60;28.30
5466;DHT22;2755;50.728;7.108;2023-04-08T15:31:39;13.60;27.20
5466;DHT22;2755;50.728;7.108;2023-04-08T15:34:05;13.80;28.20
5466;DHT22;2755;50.728;7.108;2023-04-08T15:36:31;13.50;26.30
5466;DHT22;2755;50.728;7.108;2023-04-08T15:41:22;12.50;27.50
5466;DHT22;2755;50.728;7.108;2023-04-08T15:46:18;13.20;27.30
5466;DHT22;2755;50.728;7.108;2023-04-08T15:48:43;13.50;28.20
5466;DHT22;2755;50.728;7.108;2023-04-08T15:51:09;13.20;27.50
5466;DHT22;2755;50.728;7.108;2023-04-08T15:53:41;13.20;27.50
5466;DHT22;2755;50.728;7.108;2023-04-08T15:56:13;13.20;29.60
5466;DHT22;2755;50.728;7.108;2023-04-08T15:58:40;13.30;30.00
5466;DHT22;2755;50.728;7.108;2023-04-08T16:01:06;13.10;32.30
5466;DHT22;2755;50.728;7.108;2023-04-08T16:03:31;13.10;29.00
5466;DHT22;2755;50.728;7.108;2023-04-08T16:05:57;12.80;31.00
5466;DHT22;2755;50.728;7.108;2023-04-08T16:08:22;12.70;31.20
5466;DHT22;2755;50.728;7.108;2023-04-08T16:10:48;13.70;29.40
5466;DHT22;2755;50.728;7.108;2023-04-08T16:13:14;13.30;29.80
5466;DHT22;2755;50.728;7.108;2023-04-08T16:20:35;13.30;30.30
5466;DHT22;2755;50.728;7.108;2023-04-08T16:25:26;13.00;33.50
5466;DHT22;2755;50.728;7.108;2023-04-08T16:27:52;12.90;31.00
5466;DHT22;2755;50.728;7.108;2023-04-08T16:30:18;12.80;31.00
5466;DHT22;2755;50.728;7.108;2023-04-08T16:32:43;12.80;30.50
5466;DHT22;2755;50.728;7.108;2023-04-08T16:44:56;14.60;35.10
5466;DHT22;2755;50.728;7.108;2023-04-08T16:47:22;12.20;35.00
5466;DHT22;2755;50.728;7.108;2023-04-08T16:49:49;11.50;37.40
5466;DHT22;2755;50.728;7.108;2023-04-08T16:52:14;11.40;40.30
5466;DHT22;2755;50.728;7.108;2023-04-08T16:54:40;11.60;43.80
5466;DHT22;2755;50.728;7.108;2023-04-08T16:57:07;11.60;43.00
5466;DHT22;2755;50.728;7.108;2023-04-08T16:59:33;11.40;45.10
5466;DHT22;2755;50.728;7.108;2023-04-08T17:04:24;11.20;44.60
5466;DHT22;2755;50.728;7.108;2023-04-08T17:16:34;10.90;49.50
5466;DHT22;2755;50.728;7.108;2023-04-08T17:19:00;10.90;51.00
5466;DHT22;2755;50.728;7.108;2023-04-08T17:23:52;10.60;48.30
5466;DHT22;2755;50.728;7.108;2023-04-08T17:26:18;10.60;50.70
5466;DHT22;2755;50.728;7.108;2023-04-08T17:28:44;10.70;51.70
5466;DHT22;2755;50.728;7.108;2023-04-08T17:36:02;10.50;56.50
5466;DHT22;2755;50.728;7.108;2023-04-08T17:38:27;10.70;57.90
5466;DHT22;2755;50.728;7.108;2023-04-08T17:40:53;9.80;62.40
5466;DHT22;2755;50.728;7.108;2023-04-08T17:43:18;9.60;64.70
5466;DHT22;2755;50.728;7.108;2023-04-08T17:45:44;10.10;63.10
5466;DHT22;2755;50.728;7.108;2023-04-08T17:48:11;10.00;65.80
5466;DHT22;2755;50.728;7.108;2023-04-08T17:50:36;9.60;68.90
5466;DHT22;2755;50.728;7.108;2023-04-08T17:53:02;10.20;67.90
5466;DHT22;2755;50.728;7.108;2023-04-08T17:57:54;9.70;72.90
5466;DHT22;2755;50.728;7.108;2023-04-08T18:00:20;9.90;70.80
5466;DHT22;2755;50.728;7.108;2023-04-08T18:02:46;9.60;72.20
5466;DHT22;2755;50.728;7.108;2023-04-08T18:05:11;9.60;73.80
5466;DHT22;2755;50.728;7.108;2023-04-08T18:07:37;9.50;74.90
5466;DHT22;2755;50.728;7.108;2023-04-08T18:10:03;8.80;74.80
5466;DHT22;2755;50.728;7.108;2023-04-08T18:12:29;9.60;77.10
5466;DHT22;2755;50.728;7.108;2023-04-08T18:14:57;9.20;77.20
5466;DHT22;2755;50.728;7.108;2023-04-08T18:19:49;9.10;83.30
5466;DHT22;2755;50.728;7.108;2023-04-08T18:22:15;8.80;88.40
5466;DHT22;2755;50.728;7.108;2023-04-08T18:27:07;8.30;88.20
5466;DHT22;2755;50.728;7.108;2023-04-08T18:29:34;8.50;89.70
5466;DHT22;2755;50.728;7.108;2023-04-08T18:32:00;8.70;91.80
5466;DHT22;2755;50.728;7.108;2023-04-08T18:36:51;8.90;92.80
5466;DHT22;2755;50.728;7.108;2023-04-08T18:39:17;8.70;91.80
5466;DHT22;2755;50.728;7.108;2023-04-08T18:41:43;8.40;93.70
5466;DHT22;2755;50.728;7.108;2023-04-08T18:44:09;8.60;95.00
5466;DHT22;2755;50.728;7.108;2023-04-08T18:49:01;9.00;99.60
5466;DHT22;2755;50.728;7.108;2023-04-08T18:51:26;8.90;99.90
5466;DHT22;2755;50.728;7.108;2023-04-08T18:53:53;8.50;98.40
5466;DHT22;2755;50.728;7.108;2023-04-08T18:56:19;9.00;98.60
5466;DHT22;2755;50.728;7.108;2023-04-08T18:58:45;9.00;99.80
5466;DHT22;2755;50.728;7.108;2023-04-08T19:01:12;9.30;98.20
5466;DHT22;2755;50.728;7.108;2023-04-08T19:06:09;9.10;97.80
5466;DHT22;2755;50.728;7.108;2023-04-08T19:08:36;8.80;99.40
5466;DHT22;2755;50.728;7.108;2023-04-08T19:11:02;9.20;99.90
5466;DHT22;2755;50.728;7.108;2023-04-08T19:13:28;8.10;98.00
5466;DHT22;2755;50.728;7.108;2023-04-08T19:15:53;8.90;99.40
5466;DHT22;2755;50.728;7.108;2023-04-08T19:18:19;8.80;99.10
5466;DHT22;2755;50.728;7.108;2023-04-08T19:23:12;8.50;98.40
5466;DHT22;2755;50.728;7.108;2023-04-08T19:25:38;8.60;97.80
5466;DHT22;2755;50.728;7.108;2023-04-08T19:28:03;8.60;99.00
5466;DHT22;2755;50.728;7.108;2023-04-08T19:30:39;8.40;99.80
5466;DHT22;2755;50.728;7.108;2023-04-08T19:33:06;8.30;99.90
5466;DHT22;2755;50.728;7.108;2023-04-08T19:35:35;8.30;99.90
5466;DHT22;2755;50.728;7.108;2023-04-08T19:38:00;8.40;99.90
5466;DHT22;2755;50.728;7.108;2023-04-08T19:42:52;7.70;99.90
5466;DHT22;2755;50.728;7.108;2023-04-08T19:47:44;7.70;99.90
5466;DHT22;2755;50.728;7.108;2023-04-08T19:50:10;7.70;99.90
5466;DHT22;2755;50.728;7.108;2023-04-08T19:52:37;7.50;99.90
5466;DHT22;2755;50.728;7.108;2023-04-08T19:55:07;7.60;99.90
5466;DHT22;2755;50.728;7.108;2023-04-08T19:57:34;7.30;99.90
5466;DHT22;2755;50.728;7.108;2023-04-08T20:00:00;7.30;99.90
5466;DHT22;2755;50.728;7.108;2023-04-08T20:04:51;7.20;99.90
5466;DHT22;2755;50.728;7.108;2023-04-08T20:09:43;6.70;99.90
5466;DHT22;2755;50.728;7.108;2023-04-08T20:12:08;7.50;99.90
5466;DHT22;2755;50.728;7.108;2023-04-08T20:14:35;7.50;99.90
5466;DHT22;2755;50.728;7.108;2023-04-08T20:17:02;7.30;99.90
5466;DHT22;2755;50.728;7.108;2023-04-08T20:21:55;7.50;99.90
5466;DHT22;2755;50.728;7.108;2023-04-08T20:24:21;7.70;99.90
5466;DHT22;2755;50.728;7.108;2023-04-08T20:26:47;7.50;99.90
5466;DHT22;2755;50.728;7.108;2023-04-08T20:29:12;7.70;99.90
5466;DHT22;2755;50.728;7.108;2023-04-08T20:31:38;7.90;99.90
5466;DHT22;2755;50.728;7.108;2023-04-08T20:34:04;8.10;99.90
5466;DHT22;2755;50.728;7.108;2023-04-08T20:36:29;8.30;99.90
5466;DHT22;2755;50.728;7.108;2023-04-08T20:41:22;8.00;99.90
5466;DHT22;2755;50.728;7.108;2023-04-08T20:43:51;7.60;99.90
5466;DHT22;2755;50.728;7.108;2023-04-08T20:48:43;8.30;99.90
5466;DHT22;2755;50.728;7.108;2023-04-08T20:51:09;8.30;99.90
5466;DHT22;2755;50.728;7.108;2023-04-08T20:53:35;8.30;99.90
5466;DHT22;2755;50.728;7.108;2023-04-08T20:56:02;8.30;99.90
5466;DHT22;2755;50.728;7.108;2023-04-08T20:58:28;8.20;99.90
5466;DHT22;2755;50.728;7.108;2023-04-08T21:00:56;8.00;99.90
5466;DHT22;2755;50.728;7.108;2023-04-08T21:03:22;8.40;99.90
5466;DHT22;2755;50.728;7.108;2023-04-08T21:08:14;7.80;99.90